Time;durP1;ratioP1;P1;durP2;ratioP2;P2;SDS_P1;SDS_P2;PMS_P1;PMS_P2;Temp;Humidity;BMP_temperature;BMP_pressure;BME280_temperature;BME280_humidity;BME280_pressure;Samples;Min_cycle;Max_cycle;Signal;HPM_P1;HPM_P2
2021/07/29 00:00:30;;;;;;;3.88;0.73;;;;;;;;;;1489768;39;20432;-81
2021/07/29 00:01:32;;;;;;;4.38;0.77;;;;;;;;;;1477334;40;20785;-82
2021/07/29 00:02:34;;;;;;;5.05;1.45;;;;;;;;;;1477769;40;20418;-81
2021/07/29 00:03:36;;;;;;;3.38;0.95;;;;;;;;;;1486338;40;20407;-82
2021/07/29 00:04:46;;;;;;;7.28;0.60;;;;;;;;;;1486102;40;20387;-81
2021/07/29 00:05:49;;;;;;;3.50;0.68;;;;;;;;;;1486517;40;20437;-81
2021/07/29 00:06:51;;;;;;;3.30;0.63;;;;;;;;;;1482575;40;20405;-81
2021/07/29 00:07:53;;;;;;;6.65;0.80;;;;;;;;;;1482440;40;20431;-81
2021/07/29 00:08:54;;;;;;;8.93;1.30;;;;;;;;;;1486693;39;20434;-81
2021/07/29 00:09:56;;;;;;;11.02;1.65;;;;;;;;;;1485949;40;20415;-81
2021/07/29 00:10:58;;;;;;;9.35;1.80;;;;;;;;;;1477971;40;20402;-81
2021/07/29 00:11:59;;;;;;;9.98;2.20;;;;;;;;;;1482030;40;20459;-81
2021/07/29 00:13:04;;;;;;;13.43;2.20;;;;;;;;;;1480713;40;20449;-81
2021/07/29 00:14:05;;;;;;;7.70;1.67;;;;;;;;;;1486325;40;20476;-81
2021/07/29 00:15:12;;;;;;;9.52;2.50;;;;;;;;;;1486547;39;20403;-81
2021/07/29 00:16:13;;;;;;;16.83;2.60;;;;;;;;;;1482103;40;20511;-81
2021/07/29 00:17:28;;;;;;;10.48;1.90;;;;;;;;;;1478011;40;20422;-81
2021/07/29 00:19:51;;;;;;;8.30;1.90;;;;;;;;;;1486227;40;20472;-81
2021/07/29 00:20:53;;;;;;;13.70;2.60;;;;;;;;;;1481903;40;21279;-81
2021/07/29 00:21:54;;;;;;;13.30;2.08;;;;;;;;;;1484624;39;20454;-81
2021/07/29 00:23:01;;;;;;;15.52;3.50;;;;;;;;;;1490156;39;20748;-81
2021/07/29 00:24:03;;;;;;;16.63;3.78;;;;;;;;;;1489511;39;20397;-82
2021/07/29 00:25:07;;;;;;;17.23;3.47;;;;;;;;;;1486203;39;20399;-81
2021/07/29 00:26:09;;;;;;;17.63;2.78;;;;;;;;;;1483659;39;20770;-81
2021/07/29 00:27:11;;;;;;;17.27;3.78;;;;;;;;;;1480994;40;20404;-81
2021/07/29 00:28:13;;;;;;;23.52;4.05;;;;;;;;;;1481344;40;20513;-82
2021/07/29 00:29:14;;;;;;;23.40;4.28;;;;;;;;;;1473863;40;20440;-80
2021/07/29 00:30:18;;;;;;;21.42;4.63;;;;;;;;;;1477749;40;20545;-81
2021/07/29 00:31:19;;;;;;;27.23;5.22;;;;;;;;;;1481795;40;20469;-81
2021/07/29 00:32:21;;;;;;;26.95;4.50;;;;;;;;;;1481849;40;20763;-80
2021/07/29 00:33:23;;;;;;;20.85;4.15;;;;;;;;;;1477592;40;20470;-81
2021/07/29 00:34:24;;;;;;;20.98;4.97;;;;;;;;;;1477961;40;20479;-81
2021/07/29 00:35:26;;;;;;;24.30;4.13;;;;;;;;;;1477438;40;20788;-82
2021/07/29 00:36:28;;;;;;;20.70;4.38;;;;;;;;;;1481923;40;20428;-82
2021/07/29 00:37:30;;;;;;;30.02;4.85;;;;;;;;;;1481671;40;20671;-81
2021/07/29 00:38:34;;;;;;;23.27;4.60;;;;;;;;;;1481076;40;20428;-82
2021/07/29 00:39:35;;;;;;;21.98;4.60;;;;;;;;;;1481889;40;20754;-83
2021/07/29 00:40:37;;;;;;;26.65;4.40;;;;;;;;;;1482240;40;20781;-81
2021/07/29 00:41:38;;;;;;;22.00;3.58;;;;;;;;;;1482073;40;21008;-81
2021/07/29 00:42:41;;;;;;;20.70;3.83;;;;;;;;;;1481091;40;20567;-82
2021/07/29 00:43:43;;;;;;;21.90;4.68;;;;;;;;;;1482077;40;20479;-81
2021/07/29 00:44:45;;;;;;;19.93;3.80;;;;;;;;;;1481840;40;20443;-81
2021/07/29 00:45:47;;;;;;;29.00;5.22;;;;;;;;;;1481661;40;20405;-81
2021/07/29 00:46:49;;;;;;;26.33;4.60;;;;;;;;;;1477988;40;20405;-81
2021/07/29 00:47:51;;;;;;;23.63;5.23;;;;;;;;;;1477660;40;20805;-81
2021/07/29 00:49:10;;;;;;;30.45;5.10;;;;;;;;;;1474768;40;20717;-81
2021/07/29 00:50:13;;;;;;;26.88;4.40;;;;;;;;;;1478574;40;20410;-81
2021/07/29 00:51:15;;;;;;;22.42;4.63;;;;;;;;;;1485154;40;20462;-81
2021/07/29 00:52:20;;;;;;;24.73;3.85;;;;;;;;;;1486051;40;20451;-80
2021/07/29 00:53:22;;;;;;;22.33;5.13;;;;;;;;;;1482288;40;20408;-81
2021/07/29 00:54:27;;;;;;;25.00;3.90;;;;;;;;;;1485865;40;20422;-81
2021/07/29 00:55:29;;;;;;;22.48;4.47;;;;;;;;;;1486468;39;20387;-81
2021/07/29 00:56:33;;;;;;;24.67;5.10;;;;;;;;;;1487084;40;20406;-80
2021/07/29 00:57:35;;;;;;;21.45;4.57;;;;;;;;;;1486471;40;20407;-83
2021/07/29 00:58:36;;;;;;;19.00;3.58;;;;;;;;;;1476987;40;20414;-81
2021/07/29 00:59:39;;;;;;;19.77;4.22;;;;;;;;;;1481663;40;20842;-82
2021/07/29 01:00:41;;;;;;;26.15;4.18;;;;;;;;;;1486301;40;20490;-80
2021/07/29 01:01:42;;;;;;;25.88;4.65;;;;;;;;;;1485985;40;20391;-81
2021/07/29 01:02:44;;;;;;;19.83;4.03;;;;;;;;;;1481398;40;20392;-82
2021/07/29 01:03:46;;;;;;;24.00;4.82;;;;;;;;;;1480531;40;20786;-80
2021/07/29 01:04:48;;;;;;;22.48;4.18;;;;;;;;;;1486221;40;20402;-81
2021/07/29 01:05:49;;;;;;;20.45;4.15;;;;;;;;;;1477391;40;20454;-82
2021/07/29 01:06:51;;;;;;;18.38;3.15;;;;;;;;;;1477558;40;20414;-81
2021/07/29 01:07:53;;;;;;;20.77;4.10;;;;;;;;;;1485746;40;20570;-80
2021/07/29 01:09:08;;;;;;;15.65;3.63;;;;;;;;;;1481229;40;20955;-81
2021/07/29 01:10:10;;;;;;;20.03;2.90;;;;;;;;;;1481600;40;20385;-80
2021/07/29 01:11:12;;;;;;;17.92;3.83;;;;;;;;;;1482202;40;20397;-80
2021/07/29 01:12:14;;;;;;;14.23;2.22;;;;;;;;;;1482661;40;20420;-80
2021/07/29 01:13:15;;;;;;;16.38;3.13;;;;;;;;;;1486075;40;20466;-81
2021/07/29 01:14:17;;;;;;;14.00;2.42;;;;;;;;;;1485919;40;20449;-80
2021/07/29 01:15:19;;;;;;;10.18;2.10;;;;;;;;;;1481008;40;20841;-81
2021/07/29 01:16:21;;;;;;;15.20;2.58;;;;;;;;;;1477160;40;21019;-81
2021/07/29 01:17:23;;;;;;;17.25;3.20;;;;;;;;;;1478051;40;20410;-81
2021/07/29 01:18:24;;;;;;;16.90;4.18;;;;;;;;;;1481626;40;20416;-80
2021/07/29 01:19:26;;;;;;;15.55;3.05;;;;;;;;;;1481700;40;20911;-80
2021/07/29 01:20:29;;;;;;;14.80;2.60;;;;;;;;;;1478198;40;20462;-81
2021/07/29 01:21:32;;;;;;;11.20;1.92;;;;;;;;;;1482014;40;20440;-80
2021/07/29 01:22:35;;;;;;;15.05;1.92;;;;;;;;;;1482203;40;20546;-82
2021/07/29 01:23:37;;;;;;;12.27;1.83;;;;;;;;;;1481097;40;20486;-82
2021/07/29 01:24:38;;;;;;;9.60;2.13;;;;;;;;;;1477154;40;20668;-81
2021/07/29 01:25:40;;;;;;;16.42;3.10;;;;;;;;;;1469890;40;20479;-82
2021/07/29 01:26:42;;;;;;;17.90;3.25;;;;;;;;;;1474334;40;20416;-80
2021/07/29 01:27:43;;;;;;;13.35;1.73;;;;;;;;;;1486295;39;20479;-83
2021/07/29 01:28:45;;;;;;;15.75;2.33;;;;;;;;;;1488583;39;20694;-80
2021/07/29 01:29:47;;;;;;;17.13;2.42;;;;;;;;;;1488694;40;20456;-80
2021/07/29 01:30:48;;;;;;;13.27;1.92;;;;;;;;;;1492801;39;20417;-81
2021/07/29 01:31:50;;;;;;;13.52;1.98;;;;;;;;;;1494772;39;20442;-83
2021/07/29 01:32:52;;;;;;;14.25;2.47;;;;;;;;;;1486756;40;20411;-81
2021/07/29 01:33:54;;;;;;;8.88;1.80;;;;;;;;;;1482144;40;21145;-81
2021/07/29 01:34:57;;;;;;;15.05;1.92;;;;;;;;;;1485055;40;20419;-81
2021/07/29 01:35:59;;;;;;;12.60;1.25;;;;;;;;;;1494129;39;20404;-80
2021/07/29 01:37:00;;;;;;;10.25;1.75;;;;;;;;;;1493460;39;20413;-80
2021/07/29 01:38:02;;;;;;;11.20;1.73;;;;;;;;;;1491531;39;20456;-82
2021/07/29 01:39:04;;;;;;;8.27;1.20;;;;;;;;;;1487111;40;20432;-80
2021/07/29 01:40:06;;;;;;;6.85;1.60;;;;;;;;;;1486286;40;20452;-81
2021/07/29 01:41:08;;;;;;;9.52;1.08;;;;;;;;;;1489885;39;20785;-81
2021/07/29 01:42:09;;;;;;;8.00;0.95;;;;;;;;;;1487962;40;20438;-81
2021/07/29 01:43:11;;;;;;;9.60;1.10;;;;;;;;;;1479435;40;20496;-81
2021/07/29 01:44:13;;;;;;;6.07;1.10;;;;;;;;;;1479049;40;20818;-81
2021/07/29 01:45:14;;;;;;;6.97;0.80;;;;;;;;;;1483123;40;20443;-81
2021/07/29 01:46:16;;;;;;;7.03;1.15;;;;;;;;;;1486580;40;20448;-81
2021/07/29 01:47:17;;;;;;;5.22;1.10;;;;;;;;;;1481959;40;20444;-81
2021/07/29 01:48:19;;;;;;;8.82;1.10;;;;;;;;;;1478174;40;20414;-80
2021/07/29 01:49:22;;;;;;;4.82;0.80;;;;;;;;;;1477970;40;20422;-80
2021/07/29 01:50:23;;;;;;;5.18;0.95;;;;;;;;;;1482557;40;20408;-81
2021/07/29 01:51:25;;;;;;;6.50;1.00;;;;;;;;;;1486678;39;20560;-82
2021/07/29 01:52:26;;;;;;;6.80;0.88;;;;;;;;;;1486758;39;20463;-81
2021/07/29 01:53:28;;;;;;;4.50;0.75;;;;;;;;;;1485797;39;20414;-81
2021/07/29 01:54:30;;;;;;;5.38;0.90;;;;;;;;;;1481857;40;20826;-81
2021/07/29 01:55:31;;;;;;;7.43;0.70;;;;;;;;;;1481128;40;20448;-81
2021/07/29 01:56:33;;;;;;;4.38;0.50;;;;;;;;;;1481843;40;20408;-82
2021/07/29 01:57:36;;;;;;;4.07;0.85;;;;;;;;;;1481787;40;20415;-82
2021/07/29 01:58:37;;;;;;;4.82;0.50;;;;;;;;;;1481607;40;20787;-82
2021/07/29 01:59:39;;;;;;;3.97;0.50;;;;;;;;;;1485617;40;20536;-82
2021/07/29 02:00:43;;;;;;;4.90;0.50;;;;;;;;;;1485941;40;20399;-81
2021/07/29 02:01:45;;;;;;;5.68;1.35;;;;;;;;;;1485512;40;20791;-81
2021/07/29 02:02:47;;;;;;;3.80;0.73;;;;;;;;;;1485445;39;20820;-81
2021/07/29 02:03:49;;;;;;;4.80;0.77;;;;;;;;;;1485289;40;20411;-81
2021/07/29 02:04:51;;;;;;;4.15;0.43;;;;;;;;;;1485862;40;21026;-81
2021/07/29 02:05:52;;;;;;;3.60;0.40;;;;;;;;;;1485710;39;20564;-81
2021/07/29 02:06:54;;;;;;;3.40;0.40;;;;;;;;;;1481996;40;20423;-81
2021/07/29 02:07:56;;;;;;;4.03;0.40;;;;;;;;;;1477345;40;20593;-80
2021/07/29 02:08:57;;;;;;;2.53;0.47;;;;;;;;;;1482275;40;20549;-80
2021/07/29 02:09:59;;;;;;;3.90;0.38;;;;;;;;;;1484816;40;20469;-81
2021/07/29 02:11:04;;;;;;;4.95;0.85;;;;;;;;;;1481477;40;20404;-80
2021/07/29 02:12:06;;;;;;;3.40;0.47;;;;;;;;;;1482594;39;20387;-81
2021/07/29 02:13:07;;;;;;;3.67;0.60;;;;;;;;;;1485702;39;20845;-81
2021/07/29 02:14:09;;;;;;;2.10;0.30;;;;;;;;;;1489680;39;20602;-81
2021/07/29 02:15:11;;;;;;;2.60;0.68;;;;;;;;;;1491203;39;20417;-81
2021/07/29 02:16:17;;;;;;;1.92;0.40;;;;;;;;;;1492082;39;20403;-81
2021/07/29 02:17:20;;;;;;;4.00;0.70;;;;;;;;;;1491645;39;20408;-80
2021/07/29 02:18:21;;;;;;;4.93;0.80;;;;;;;;;;1490122;39;20465;-80
2021/07/29 02:19:23;;;;;;;6.47;0.68;;;;;;;;;;1490808;39;20437;-82
2021/07/29 02:20:26;;;;;;;3.45;0.60;;;;;;;;;;1486878;39;20786;-81
2021/07/29 02:21:27;;;;;;;1.83;0.63;;;;;;;;;;1491408;39;20733;-81
2021/07/29 02:22:29;;;;;;;3.22;0.50;;;;;;;;;;1491031;39;20838;-81
2021/07/29 02:23:30;;;;;;;8.15;1.25;;;;;;;;;;1491081;39;20436;-81
2021/07/29 02:24:32;;;;;;;7.68;0.52;;;;;;;;;;1491248;39;20401;-81
2021/07/29 02:25:33;;;;;;;7.30;1.08;;;;;;;;;;1487108;39;21106;-82
2021/07/29 02:26:35;;;;;;;5.57;0.80;;;;;;;;;;1486318;40;20426;-82
2021/07/29 02:27:36;;;;;;;7.32;0.68;;;;;;;;;;1486880;40;20498;-82
2021/07/29 02:28:38;;;;;;;5.18;0.60;;;;;;;;;;1486979;40;20433;-81
2021/07/29 02:29:40;;;;;;;6.18;1.00;;;;;;;;;;1487053;40;20405;-80
2021/07/29 02:30:41;;;;;;;5.82;0.75;;;;;;;;;;1484410;39;20489;-81
2021/07/29 02:31:43;;;;;;;9.38;1.63;;;;;;;;;;1483438;40;20497;-81
2021/07/29 02:32:45;;;;;;;5.97;1.60;;;;;;;;;;1483190;40;20657;-80
2021/07/29 02:33:46;;;;;;;6.43;0.85;;;;;;;;;;1481942;40;20601;-81
2021/07/29 02:34:48;;;;;;;6.25;1.27;;;;;;;;;;1478755;40;20398;-81
2021/07/29 02:35:50;;;;;;;9.07;1.17;;;;;;;;;;1483111;40;20573;-80
2021/07/29 02:36:52;;;;;;;7.22;0.98;;;;;;;;;;1478785;40;20460;-80
2021/07/29 02:37:53;;;;;;;5.72;0.60;;;;;;;;;;1478739;40;20413;-81
2021/07/29 02:38:55;;;;;;;6.50;0.60;;;;;;;;;;1483046;40;20499;-81
2021/07/29 02:39:56;;;;;;;5.22;1.70;;;;;;;;;;1478555;40;20473;-80
2021/07/29 02:40:58;;;;;;;5.60;0.90;;;;;;;;;;1483001;40;20475;-80
2021/07/29 02:41:59;;;;;;;5.50;0.70;;;;;;;;;;1482612;40;20404;-80
2021/07/29 02:43:01;;;;;;;10.52;1.52;;;;;;;;;;1483732;39;20475;-81
2021/07/29 02:44:03;;;;;;;10.43;1.70;;;;;;;;;;1487018;40;20476;-81
2021/07/29 02:45:05;;;;;;;6.80;1.20;;;;;;;;;;1481850;40;20467;-80
2021/07/29 02:46:06;;;;;;;11.65;1.90;;;;;;;;;;1486970;40;20434;-80
2021/07/29 02:47:08;;;;;;;8.00;1.70;;;;;;;;;;1486764;40;20379;-81
2021/07/29 02:48:10;;;;;;;7.93;1.42;;;;;;;;;;1486905;39;20720;-82
2021/07/29 02:49:11;;;;;;;6.82;1.10;;;;;;;;;;1491254;39;20436;-80
2021/07/29 02:50:13;;;;;;;12.52;1.58;;;;;;;;;;1483976;40;20392;-81
2021/07/29 02:51:14;;;;;;;8.93;1.30;;;;;;;;;;1482878;40;20416;-82
2021/07/29 02:52:16;;;;;;;11.68;1.80;;;;;;;;;;1481984;40;20410;-80
2021/07/29 02:53:17;;;;;;;6.47;1.13;;;;;;;;;;1478887;40;20450;-81
2021/07/29 02:54:19;;;;;;;11.18;0.80;;;;;;;;;;1482887;40;20415;-81
2021/07/29 02:55:21;;;;;;;8.70;1.20;;;;;;;;;;1479178;40;20435;-81
2021/07/29 02:56:23;;;;;;;5.40;0.95;;;;;;;;;;1482931;40;20420;-81
2021/07/29 02:57:24;;;;;;;8.75;1.90;;;;;;;;;;1487066;39;20422;-81
2021/07/29 02:58:26;;;;;;;10.02;1.70;;;;;;;;;;1491009;39;20409;-81
2021/07/29 02:59:28;;;;;;;6.17;1.10;;;;;;;;;;1482143;40;20551;-81
2021/07/29 03:00:30;;;;;;;7.43;1.10;;;;;;;;;;1482892;40;20662;-80
2021/07/29 03:01:31;;;;;;;11.90;1.53;;;;;;;;;;1482830;40;20440;-81
2021/07/29 03:02:33;;;;;;;9.07;0.90;;;;;;;;;;1483491;40;20407;-82
2021/07/29 03:03:35;;;;;;;8.35;0.90;;;;;;;;;;1478935;40;20409;-82
2021/07/29 03:04:37;;;;;;;5.88;1.05;;;;;;;;;;1478894;40;20492;-82
2021/07/29 03:05:38;;;;;;;8.15;0.90;;;;;;;;;;1482817;40;20407;-82
2021/07/29 03:06:40;;;;;;;7.10;1.30;;;;;;;;;;1482644;40;20515;-81
2021/07/29 03:07:42;;;;;;;7.10;1.27;;;;;;;;;;1478132;40;21215;-81
2021/07/29 03:08:43;;;;;;;13.45;1.92;;;;;;;;;;1474842;40;20423;-81
2021/07/29 03:09:45;;;;;;;21.65;2.50;;;;;;;;;;1478984;40;20476;-81
2021/07/29 03:10:47;;;;;;;9.98;1.77;;;;;;;;;;1482326;40;20476;-80
2021/07/29 03:11:49;;;;;;;9.35;1.20;;;;;;;;;;1483214;40;20419;-81
2021/07/29 03:12:51;;;;;;;7.25;1.10;;;;;;;;;;1483158;40;20502;-81
2021/07/29 03:13:52;;;;;;;9.70;1.45;;;;;;;;;;1482232;40;20506;-82
2021/07/29 03:14:54;;;;;;;12.25;1.23;;;;;;;;;;1482262;40;20409;-80
2021/07/29 03:15:56;;;;;;;6.53;1.20;;;;;;;;;;1482706;40;20467;-81
2021/07/29 03:16:57;;;;;;;7.10;1.58;;;;;;;;;;1482798;40;20516;-81
2021/07/29 03:17:59;;;;;;;6.47;0.85;;;;;;;;;;1482778;40;20436;-81
2021/07/29 03:19:03;;;;;;;10.70;1.20;;;;;;;;;;1478446;40;20452;-81
2021/07/29 03:20:05;;;;;;;10.38;1.70;;;;;;;;;;1480681;40;20440;-81
2021/07/29 03:21:08;;;;;;;6.00;1.45;;;;;;;;;;1486800;40;20477;-82
2021/07/29 03:22:10;;;;;;;6.68;0.95;;;;;;;;;;1482178;40;20430;-81
2021/07/29 03:23:12;;;;;;;8.70;1.27;;;;;;;;;;1482099;40;20424;-81
2021/07/29 03:24:13;;;;;;;3.97;1.25;;;;;;;;;;1482834;40;20408;-81
2021/07/29 03:25:15;;;;;;;8.43;1.50;;;;;;;;;;1486299;39;20553;-80
2021/07/29 03:26:16;;;;;;;7.80;1.50;;;;;;;;;;1482525;40;20530;-81
2021/07/29 03:27:18;;;;;;;9.35;1.20;;;;;;;;;;1478061;40;20458;-81
2021/07/29 03:28:21;;;;;;;10.80;1.73;;;;;;;;;;1473965;40;20568;-81
2021/07/29 03:29:27;;;;;;;9.32;1.58;;;;;;;;;;1477344;40;20425;-81
2021/07/29 03:30:28;;;;;;;11.45;1.17;;;;;;;;;;1482045;40;20445;-80
2021/07/29 03:31:30;;;;;;;8.02;1.42;;;;;;;;;;1482374;40;20504;-80
2021/07/29 03:32:32;;;;;;;8.27;1.30;;;;;;;;;;1481629;40;20564;-81
2021/07/29 03:33:38;;;;;;;9.02;1.23;;;;;;;;;;1482263;40;20404;-82
2021/07/29 03:34:39;;;;;;;8.35;1.40;;;;;;;;;;1482903;40;20519;-81
2021/07/29 03:35:41;;;;;;;8.90;1.33;;;;;;;;;;1482478;40;20497;-81
2021/07/29 03:36:43;;;;;;;6.43;1.48;;;;;;;;;;1482890;40;20413;-80
2021/07/29 03:37:45;;;;;;;5.15;1.02;;;;;;;;;;1482301;40;20452;-81
2021/07/29 03:38:47;;;;;;;8.32;1.60;;;;;;;;;;1469271;40;20437;-80
2021/07/29 03:39:48;;;;;;;8.85;1.20;;;;;;;;;;1474132;40;20530;-82
2021/07/29 03:40:50;;;;;;;10.70;1.98;;;;;;;;;;1482314;40;20400;-80
2021/07/29 03:41:51;;;;;;;7.78;0.80;;;;;;;;;;1482292;40;20518;-81
2021/07/29 03:42:53;;;;;;;11.38;1.45;;;;;;;;;;1481312;40;20393;-80
2021/07/29 03:43:54;;;;;;;16.92;2.45;;;;;;;;;;1482215;40;20638;-80
2021/07/29 03:44:57;;;;;;;12.10;2.03;;;;;;;;;;1482264;40;20884;-83
2021/07/29 03:45:59;;;;;;;9.25;1.90;;;;;;;;;;1482011;40;20499;-83
2021/07/29 03:47:00;;;;;;;7.30;1.20;;;;;;;;;;1481836;40;20469;-81
2021/07/29 03:48:03;;;;;;;9.20;1.27;;;;;;;;;;1481956;40;20417;-81
2021/07/29 03:49:05;;;;;;;10.60;1.52;;;;;;;;;;1482004;40;20448;-81
2021/07/29 03:50:06;;;;;;;9.23;1.58;;;;;;;;;;1484474;40;20403;-80
2021/07/29 03:51:12;;;;;;;8.82;1.00;;;;;;;;;;1486380;40;20508;-81
2021/07/29 03:52:15;;;;;;;9.15;1.40;;;;;;;;;;1481695;40;20795;-80
2021/07/29 03:53:16;;;;;;;13.00;1.38;;;;;;;;;;1481727;40;20450;-80
2021/07/29 03:54:18;;;;;;;10.80;1.75;;;;;;;;;;1482020;40;20432;-81
2021/07/29 03:55:20;;;;;;;10.00;1.50;;;;;;;;;;1485974;40;20395;-80
2021/07/29 03:56:21;;;;;;;8.25;1.00;;;;;;;;;;1486456;39;20427;-80
2021/07/29 03:57:23;;;;;;;10.35;1.10;;;;;;;;;;1486452;40;20395;-80
2021/07/29 03:58:25;;;;;;;7.60;1.67;;;;;;;;;;1485482;40;20478;-81
2021/07/29 03:59:26;;;;;;;9.25;1.70;;;;;;;;;;1485811;40;20880;-81
2021/07/29 04:00:28;;;;;;;5.95;1.38;;;;;;;;;;1482199;40;20804;-81
2021/07/29 04:01:30;;;;;;;12.63;2.40;;;;;;;;;;1482090;40;20731;-80
2021/07/29 04:02:33;;;;;;;9.10;1.92;;;;;;;;;;1481910;40;20416;-81
2021/07/29 04:03:35;;;;;;;9.20;1.35;;;;;;;;;;1486035;40;20391;-82
2021/07/29 04:04:38;;;;;;;6.53;1.05;;;;;;;;;;1486206;39;20433;-82
2021/07/29 04:05:40;;;;;;;9.20;1.30;;;;;;;;;;1486512;39;20496;-81
2021/07/29 04:06:42;;;;;;;7.80;1.55;;;;;;;;;;1487062;39;20407;-81
2021/07/29 04:07:43;;;;;;;6.93;1.10;;;;;;;;;;1486477;40;20932;-80
2021/07/29 04:08:45;;;;;;;9.48;1.48;;;;;;;;;;1482350;40;20822;-81
2021/07/29 04:09:46;;;;;;;11.60;1.40;;;;;;;;;;1484450;40;20861;-81
2021/07/29 04:10:48;;;;;;;7.93;1.67;;;;;;;;;;1480892;40;20591;-82
2021/07/29 04:11:49;;;;;;;8.32;0.88;;;;;;;;;;1480309;40;20883;-80
2021/07/29 04:12:51;;;;;;;11.07;1.90;;;;;;;;;;1484883;40;20466;-81
2021/07/29 04:13:52;;;;;;;7.75;1.38;;;;;;;;;;1486223;40;20483;-79
2021/07/29 04:14:54;;;;;;;10.48;1.38;;;;;;;;;;1480589;40;20413;-80
2021/07/29 04:16:03;;;;;;;11.40;1.48;;;;;;;;;;1483409;40;20993;-81
2021/07/29 04:17:05;;;;;;;9.60;1.02;;;;;;;;;;1490182;40;20399;-80
2021/07/29 04:18:06;;;;;;;9.13;1.70;;;;;;;;;;1487597;40;20401;-81
2021/07/29 04:19:08;;;;;;;8.13;1.15;;;;;;;;;;1482633;40;20516;-79
2021/07/29 04:20:10;;;;;;;7.57;1.10;;;;;;;;;;1489472;40;20467;-80
2021/07/29 04:21:15;;;;;;;10.23;1.58;;;;;;;;;;1488086;40;20538;-80
2021/07/29 04:22:17;;;;;;;5.70;0.93;;;;;;;;;;1483567;40;21003;-81
2021/07/29 04:23:19;;;;;;;9.48;1.40;;;;;;;;;;1483931;40;20472;-80
2021/07/29 04:24:21;;;;;;;8.93;1.55;;;;;;;;;;1487956;40;20396;-81
2021/07/29 04:25:22;;;;;;;5.85;0.90;;;;;;;;;;1488060;40;20409;-82
2021/07/29 04:26:24;;;;;;;9.80;1.80;;;;;;;;;;1494441;39;20788;-80
2021/07/29 04:27:25;;;;;;;9.98;1.52;;;;;;;;;;1485022;40;20452;-80
2021/07/29 04:28:28;;;;;;;5.93;1.25;;;;;;;;;;1483662;40;20401;-80
2021/07/29 04:29:34;;;;;;;6.00;1.40;;;;;;;;;;1487649;39;20803;-81
2021/07/29 04:30:36;;;;;;;7.40;1.25;;;;;;;;;;1492408;39;20628;-80
2021/07/29 04:31:38;;;;;;;6.27;1.30;;;;;;;;;;1491456;39;20806;-81
2021/07/29 04:32:39;;;;;;;4.45;1.00;;;;;;;;;;1486768;40;20399;-81
2021/07/29 04:33:41;;;;;;;6.88;1.08;;;;;;;;;;1486329;39;20474;-81
2021/07/29 04:34:42;;;;;;;7.50;1.52;;;;;;;;;;1486462;40;20438;-80
2021/07/29 04:35:44;;;;;;;9.82;1.30;;;;;;;;;;1485793;39;20447;-80
2021/07/29 04:36:46;;;;;;;5.93;1.13;;;;;;;;;;1486088;40;20442;-81
2021/07/29 04:37:47;;;;;;;6.10;0.70;;;;;;;;;;1482048;40;20441;-80
2021/07/29 04:38:49;;;;;;;11.13;1.77;;;;;;;;;;1486017;39;20455;-80
2021/07/29 04:39:51;;;;;;;8.35;1.58;;;;;;;;;;1490358;39;20814;-80
2021/07/29 04:41:02;;;;;;;9.25;2.05;;;;;;;;;;1485884;40;20484;-80
2021/07/29 04:42:04;;;;;;;9.93;1.60;;;;;;;;;;1486795;39;20419;-80
2021/07/29 04:43:05;;;;;;;5.35;1.58;;;;;;;;;;1486061;40;20437;-81
2021/07/29 04:44:08;;;;;;;7.43;1.92;;;;;;;;;;1477011;40;20434;-80
2021/07/29 04:45:10;;;;;;;6.78;1.00;;;;;;;;;;1482114;39;20392;-80
2021/07/29 04:46:12;;;;;;;8.20;1.30;;;;;;;;;;1486139;40;20496;-79
2021/07/29 04:47:15;;;;;;;9.05;1.13;;;;;;;;;;1477398;40;20474;-81
2021/07/29 04:48:16;;;;;;;8.98;1.17;;;;;;;;;;1481185;39;20432;-81
2021/07/29 04:49:22;;;;;;;9.95;1.27;;;;;;;;;;1486066;40;20403;-80
2021/07/29 04:50:24;;;;;;;8.10;1.52;;;;;;;;;;1486146;39;20391;-80
2021/07/29 04:51:25;;;;;;;9.38;2.80;;;;;;;;;;1489808;39;20405;-80
2021/07/29 04:52:27;;;;;;;10.45;1.77;;;;;;;;;;1494372;39;20787;-80
2021/07/29 04:53:29;;;;;;;8.10;1.20;;;;;;;;;;1486097;40;20402;-81
2021/07/29 04:54:31;;;;;;;9.13;1.33;;;;;;;;;;1485867;39;20455;-81
2021/07/29 04:55:32;;;;;;;7.22;1.25;;;;;;;;;;1494789;39;20403;-81
2021/07/29 04:56:34;;;;;;;9.63;1.75;;;;;;;;;;1481854;40;20409;-80
2021/07/29 04:57:36;;;;;;;7.22;1.30;;;;;;;;;;1477756;39;21134;-82
2021/07/29 04:58:37;;;;;;;6.35;1.65;;;;;;;;;;1485755;39;20564;-81
2021/07/29 04:59:41;;;;;;;9.93;1.85;;;;;;;;;;1486021;39;20402;-82
2021/07/29 05:00:42;;;;;;;10.27;1.95;;;;;;;;;;1480922;40;20465;-81
2021/07/29 05:01:44;;;;;;;7.68;1.65;;;;;;;;;;1481379;40;20408;-81
2021/07/29 05:02:46;;;;;;;10.70;1.83;;;;;;;;;;1481976;40;20432;-80
2021/07/29 05:03:48;;;;;;;7.07;1.40;;;;;;;;;;1480967;40;20475;-80
2021/07/29 05:04:49;;;;;;;9.63;1.95;;;;;;;;;;1485579;39;20803;-80
2021/07/29 05:05:51;;;;;;;9.00;2.00;;;;;;;;;;1490685;39;20393;-80
2021/07/29 05:06:52;;;;;;;10.90;1.60;;;;;;;;;;1490923;39;20558;-80
2021/07/29 05:07:54;;;;;;;11.80;1.52;;;;;;;;;;1489828;39;20486;-81
2021/07/29 05:08:56;;;;;;;10.00;2.45;;;;;;;;;;1485789;40;20459;-81
2021/07/29 05:09:57;;;;;;;8.10;1.90;;;;;;;;;;1481727;40;20551;-80
2021/07/29 05:11:02;;;;;;;12.13;2.38;;;;;;;;;;1481993;40;20498;-81
2021/07/29 05:12:04;;;;;;;9.30;1.92;;;;;;;;;;1481342;40;20408;-81
2021/07/29 05:13:06;;;;;;;11.10;2.13;;;;;;;;;;1481149;40;20417;-81
2021/07/29 05:14:07;;;;;;;9.52;2.00;;;;;;;;;;1485961;39;20993;-81
2021/07/29 05:15:10;;;;;;;11.27;2.30;;;;;;;;;;1489728;39;20431;-81
2021/07/29 05:16:11;;;;;;;13.60;2.78;;;;;;;;;;1490718;39;20473;-81
2021/07/29 05:17:13;;;;;;;12.15;2.53;;;;;;;;;;1486040;40;20728;-80
2021/07/29 05:18:14;;;;;;;13.40;2.22;;;;;;;;;;1482102;40;20510;-80
2021/07/29 05:19:16;;;;;;;13.15;2.85;;;;;;;;;;1484687;39;20426;-80
2021/07/29 05:20:18;;;;;;;12.48;2.15;;;;;;;;;;1481181;40;20513;-80
2021/07/29 05:21:19;;;;;;;14.38;2.60;;;;;;;;;;1481771;39;20475;-81
2021/07/29 05:22:21;;;;;;;16.70;2.33;;;;;;;;;;1485918;39;20571;-81
2021/07/29 05:23:22;;;;;;;14.27;2.30;;;;;;;;;;1489350;39;21121;-81
2021/07/29 05:24:24;;;;;;;9.30;2.55;;;;;;;;;;1494438;39;20419;-81
2021/07/29 05:25:25;;;;;;;11.43;2.38;;;;;;;;;;1484450;39;20708;-81
2021/07/29 05:26:27;;;;;;;13.60;3.05;;;;;;;;;;1485306;40;20833;-81
2021/07/29 05:27:29;;;;;;;9.88;1.85;;;;;;;;;;1485476;39;20418;-81
2021/07/29 05:28:31;;;;;;;9.98;2.00;;;;;;;;;;1490508;39;20409;-80
2021/07/29 05:29:32;;;;;;;10.30;2.20;;;;;;;;;;1485957;40;20497;-81
2021/07/29 05:30:35;;;;;;;12.77;1.98;;;;;;;;;;1481380;40;20516;-82
2021/07/29 05:31:41;;;;;;;9.68;2.00;;;;;;;;;;1485571;39;20429;-82
2021/07/29 05:32:42;;;;;;;13.50;2.70;;;;;;;;;;1490262;39;20374;-81
2021/07/29 05:33:44;;;;;;;12.27;2.22;;;;;;;;;;1485654;40;20437;-81
2021/07/29 05:34:46;;;;;;;11.15;1.92;;;;;;;;;;1485556;39;20469;-81
2021/07/29 05:35:47;;;;;;;11.95;2.40;;;;;;;;;;1489981;39;20743;-81
2021/07/29 05:36:49;;;;;;;11.63;2.25;;;;;;;;;;1490808;39;20416;-81
2021/07/29 05:37:50;;;;;;;11.32;2.03;;;;;;;;;;1491916;39;20429;-80
2021/07/29 05:38:52;;;;;;;12.65;2.67;;;;;;;;;;1489792;39;20405;-81
2021/07/29 05:39:54;;;;;;;14.88;3.40;;;;;;;;;;1485883;39;20744;-80
2021/07/29 05:40:58;;;;;;;8.32;2.00;;;;;;;;;;1490069;39;21224;-80
2021/07/29 05:42:01;;;;;;;12.05;2.63;;;;;;;;;;1489926;39;21278;-80
2021/07/29 05:43:03;;;;;;;11.43;2.50;;;;;;;;;;1485412;39;20524;-80
2021/07/29 05:44:11;;;;;;;12.35;2.80;;;;;;;;;;1490133;39;20558;-80
2021/07/29 05:45:12;;;;;;;14.45;2.75;;;;;;;;;;1494903;39;20777;-79
2021/07/29 05:46:14;;;;;;;16.63;2.65;;;;;;;;;;1494837;39;20422;-80
2021/07/29 05:47:16;;;;;;;12.25;2.53;;;;;;;;;;1494242;39;20481;-79
2021/07/29 05:48:17;;;;;;;14.73;2.40;;;;;;;;;;1489336;39;20913;-80
2021/07/29 05:49:19;;;;;;;10.50;2.50;;;;;;;;;;1489886;39;21196;-80
2021/07/29 05:50:21;;;;;;;14.02;2.78;;;;;;;;;;1484725;39;20513;-81
2021/07/29 05:51:23;;;;;;;14.93;3.20;;;;;;;;;;1486153;39;20517;-80
2021/07/29 05:52:24;;;;;;;8.02;2.13;;;;;;;;;;1490515;39;20515;-80
2021/07/29 05:53:26;;;;;;;13.50;2.35;;;;;;;;;;1490538;39;20423;-80
2021/07/29 05:54:27;;;;;;;10.00;1.92;;;;;;;;;;1489586;39;20886;-80
2021/07/29 05:55:29;;;;;;;7.82;1.52;;;;;;;;;;1485407;40;20804;-81
2021/07/29 05:56:31;;;;;;;10.88;2.30;;;;;;;;;;1485855;39;20525;-81
2021/07/29 05:57:33;;;;;;;5.63;1.63;;;;;;;;;;1484987;40;20536;-79
2021/07/29 05:58:35;;;;;;;8.15;2.45;;;;;;;;;;1485680;39;20418;-80
2021/07/29 05:59:37;;;;;;;8.07;1.95;;;;;;;;;;1490078;39;20813;-82
2021/07/29 06:00:38;;;;;;;8.15;1.98;;;;;;;;;;1490509;39;20416;-81
2021/07/29 06:01:40;;;;;;;13.48;1.80;;;;;;;;;;1484762;40;20470;-81
2021/07/29 06:02:42;;;;;;;9.23;2.08;;;;;;;;;;1482845;39;20387;-80
2021/07/29 06:03:44;;;;;;;11.95;1.80;;;;;;;;;;1485464;39;20403;-80
2021/07/29 06:04:45;;;;;;;11.60;2.30;;;;;;;;;;1481010;40;20746;-81
2021/07/29 06:05:47;;;;;;;7.15;1.60;;;;;;;;;;1481566;39;20491;-82
2021/07/29 06:06:48;;;;;;;8.73;1.67;;;;;;;;;;1491027;39;20389;-81
2021/07/29 06:07:50;;;;;;;10.52;1.90;;;;;;;;;;1485531;40;20479;-81
2021/07/29 06:08:57;;;;;;;10.90;1.85;;;;;;;;;;1481754;40;20405;-81
2021/07/29 06:09:59;;;;;;;10.95;2.05;;;;;;;;;;1478264;40;20434;-82
2021/07/29 06:11:04;;;;;;;9.13;2.13;;;;;;;;;;1482529;39;20401;-82
2021/07/29 06:12:06;;;;;;;8.57;1.95;;;;;;;;;;1485789;40;20426;-81